KRME/RME METAR and TAF weather

Enter ICAO airport designator
Station Type Date Time Source
KRME METAR 2023/01/30 11:53 UTC NOAA

KRME 301153Z AUTO 32004KT 10SM OVC015 M05/M07 A3024 RMK AO2 SLP245 70012 T10501067 11022 21050 50004


Station Type Date Time Source
KRME Decoded METAR 2023/01/30 11:53 UTC NOAA

GRIFFISS AIRFIELD, NY, United States (KRME) 43-14N 075-24W
Jan 30, 2023 - 06:53 AM EST / 2023.01.30 1153 UTC
Wind: from the NW (320 degrees) at 5 MPH (4 KT):0
Visibility: 10 mile(s):0
Sky conditions: overcast
Temperature: 23.0 F (-5.0 C)
Windchill: 15 F (-9 C):1
Dew Point: 19.9 F (-6.7 C)
Relative Humidity: 87%
Pressure (altimeter): 30.24 in. Hg (1024 hPa)
Pressure tendency: 0.01 inches (0.4 hPa) higher than three hours ago
ob: KRME 301153Z AUTO 32004KT 10SM OVC015 M05/M07 A3024 RMK AO2 SLP245 70012 T10501067 11022 21050 50004
cycle: 12

Station Type Date Time Source
KRME TAF 2023/01/30 12:39 UTC NOAA

TAF KRME 301135Z 3012/3112 VRB03KT P6SM OVC015
FM301700 28004KT 4SM -SHSN BR OVC015
FM302100 29005KT 2SM -SHSN BR OVC012
FM310000 28005KT 4SM -SHSN BR OVC015
FM310600 28008KT 2SM -SHSN BR OVC015
FM311000 31008KT 3SM -SHSN BR OVC025

Example: see airport list